sensor_id;sensor_type;location;lat;lon;timestamp;temperature;humidity
26595;DHT22;14238;49.496;8.154;2023-02-04T00:01:28;8.20;99.90
26595;DHT22;14238;49.496;8.154;2023-02-04T00:03:54;8.20;99.90
26595;DHT22;14238;49.496;8.154;2023-02-04T00:06:19;8.20;99.90
26595;DHT22;14238;49.496;8.154;2023-02-04T00:08:45;8.10;99.90
26595;DHT22;14238;49.496;8.154;2023-02-04T00:11:10;8.10;99.90
26595;DHT22;14238;49.496;8.154;2023-02-04T00:13:36;8.20;99.90
26595;DHT22;14238;49.496;8.154;2023-02-04T00:16:02;8.10;99.90
26595;DHT22;14238;49.496;8.154;2023-02-04T00:18:27;8.00;99.90
26595;DHT22;14238;49.496;8.154;2023-02-04T00:20:53;8.10;99.90
26595;DHT22;14238;49.496;8.154;2023-02-04T00:23:19;8.00;99.90
26595;DHT22;14238;49.496;8.154;2023-02-04T00:25:44;7.80;99.90
26595;DHT22;14238;49.496;8.154;2023-02-04T00:28:10;7.80;99.90
26595;DHT22;14238;49.496;8.154;2023-02-04T00:30:35;7.80;99.90
26595;DHT22;14238;49.496;8.154;2023-02-04T00:33:01;7.70;99.90
26595;DHT22;14238;49.496;8.154;2023-02-04T00:35:27;7.70;99.90
26595;DHT22;14238;49.496;8.154;2023-02-04T00:37:52;7.70;99.90
26595;DHT22;14238;49.496;8.154;2023-02-04T00:40:18;7.80;99.90
26595;DHT22;14238;49.496;8.154;2023-02-04T00:42:44;7.80;99.90
26595;DHT22;14238;49.496;8.154;2023-02-04T00:45:10;7.80;99.90
26595;DHT22;14238;49.496;8.154;2023-02-04T00:47:36;7.80;99.90
26595;DHT22;14238;49.496;8.154;2023-02-04T00:50:02;7.70;99.90
26595;DHT22;14238;49.496;8.154;2023-02-04T00:52:28;7.70;99.90
26595;DHT22;14238;49.496;8.154;2023-02-04T00:54:53;7.70;99.90
26595;DHT22;14238;49.496;8.154;2023-02-04T00:57:20;7.70;99.90
26595;DHT22;14238;49.496;8.154;2023-02-04T00:59:46;7.70;99.90
26595;DHT22;14238;49.496;8.154;2023-02-04T01:02:11;7.70;99.90
26595;DHT22;14238;49.496;8.154;2023-02-04T01:04:37;7.70;99.90
26595;DHT22;14238;49.496;8.154;2023-02-04T01:07:02;7.80;99.90
26595;DHT22;14238;49.496;8.154;2023-02-04T01:09:28;7.70;99.90
26595;DHT22;14238;49.496;8.154;2023-02-04T01:11:53;7.70;99.90
26595;DHT22;14238;49.496;8.154;2023-02-04T01:14:19;7.70;99.90
26595;DHT22;14238;49.496;8.154;2023-02-04T01:16:45;7.70;99.90
26595;DHT22;14238;49.496;8.154;2023-02-04T01:19:10;7.70;99.90
26595;DHT22;14238;49.496;8.154;2023-02-04T01:21:36;7.80;99.90
26595;DHT22;14238;49.496;8.154;2023-02-04T01:24:02;7.70;99.90
26595;DHT22;14238;49.496;8.154;2023-02-04T01:26:28;7.80;99.90
26595;DHT22;14238;49.496;8.154;2023-02-04T01:28:53;7.70;99.90
26595;DHT22;14238;49.496;8.154;2023-02-04T01:31:19;7.70;99.90
26595;DHT22;14238;49.496;8.154;2023-02-04T01:33:44;7.70;99.90
26595;DHT22;14238;49.496;8.154;2023-02-04T01:36:10;7.60;99.90
26595;DHT22;14238;49.496;8.154;2023-02-04T01:38:36;7.60;99.90
26595;DHT22;14238;49.496;8.154;2023-02-04T01:41:02;7.50;99.90
26595;DHT22;14238;49.496;8.154;2023-02-04T01:43:28;7.50;99.90
26595;DHT22;14238;49.496;8.154;2023-02-04T01:45:54;7.40;99.90
26595;DHT22;14238;49.496;8.154;2023-02-04T01:48:20;7.30;99.90
26595;DHT22;14238;49.496;8.154;2023-02-04T01:50:48;7.20;99.90
26595;DHT22;14238;49.496;8.154;2023-02-04T01:53:19;7.20;99.90
26595;DHT22;14238;49.496;8.154;2023-02-04T01:55:47;7.10;99.90
26595;DHT22;14238;49.496;8.154;2023-02-04T01:58:13;7.10;99.90
26595;DHT22;14238;49.496;8.154;2023-02-04T02:00:39;7.10;99.90
26595;DHT22;14238;49.496;8.154;2023-02-04T02:03:05;7.00;99.90
26595;DHT22;14238;49.496;8.154;2023-02-04T02:05:39;7.00;99.90
26595;DHT22;14238;49.496;8.154;2023-02-04T02:08:06;7.00;99.90
26595;DHT22;14238;49.496;8.154;2023-02-04T02:10:33;6.90;99.90
26595;DHT22;14238;49.496;8.154;2023-02-04T02:12:59;6.90;99.90
26595;DHT22;14238;49.496;8.154;2023-02-04T02:15:25;6.90;99.90
26595;DHT22;14238;49.496;8.154;2023-02-04T02:17:52;6.80;99.90
26595;DHT22;14238;49.496;8.154;2023-02-04T02:20:21;6.90;99.90
26595;DHT22;14238;49.496;8.154;2023-02-04T02:23:04;6.80;99.90
26595;DHT22;14238;49.496;8.154;2023-02-04T02:25:31;6.80;99.90
26595;DHT22;14238;49.496;8.154;2023-02-04T02:27:58;6.80;99.90
26595;DHT22;14238;49.496;8.154;2023-02-04T02:30:24;6.70;99.90
26595;DHT22;14238;49.496;8.154;2023-02-04T02:32:52;6.60;99.90
26595;DHT22;14238;49.496;8.154;2023-02-04T02:35:18;6.60;99.90
26595;DHT22;14238;49.496;8.154;2023-02-04T02:37:44;6.60;99.90
26595;DHT22;14238;49.496;8.154;2023-02-04T02:40:11;6.60;99.90
26595;DHT22;14238;49.496;8.154;2023-02-04T02:42:36;6.60;99.90
26595;DHT22;14238;49.496;8.154;2023-02-04T02:45:07;6.60;99.90
26595;DHT22;14238;49.496;8.154;2023-02-04T02:47:35;6.60;99.90
26595;DHT22;14238;49.496;8.154;2023-02-04T02:50:00;6.60;99.90
26595;DHT22;14238;49.496;8.154;2023-02-04T02:52:26;6.50;99.90
26595;DHT22;14238;49.496;8.154;2023-02-04T02:54:51;6.50;99.90
26595;DHT22;14238;49.496;8.154;2023-02-04T02:57:20;6.50;99.90
26595;DHT22;14238;49.496;8.154;2023-02-04T02:59:46;6.50;99.90
26595;DHT22;14238;49.496;8.154;2023-02-04T03:02:15;6.50;99.90
26595;DHT22;14238;49.496;8.154;2023-02-04T03:04:46;6.40;99.90
26595;DHT22;14238;49.496;8.154;2023-02-04T03:07:13;6.40;99.90
26595;DHT22;14238;49.496;8.154;2023-02-04T03:09:39;6.40;99.90
26595;DHT22;14238;49.496;8.154;2023-02-04T03:12:05;6.40;99.90
26595;DHT22;14238;49.496;8.154;2023-02-04T03:14:32;6.40;99.90
26595;DHT22;14238;49.496;8.154;2023-02-04T03:16:58;6.40;99.90
26595;DHT22;14238;49.496;8.154;2023-02-04T03:19:25;6.40;99.90
26595;DHT22;14238;49.496;8.154;2023-02-04T03:21:53;6.40;99.90
26595;DHT22;14238;49.496;8.154;2023-02-04T03:24:19;6.40;99.90
26595;DHT22;14238;49.496;8.154;2023-02-04T03:26:45;6.40;99.90
26595;DHT22;14238;49.496;8.154;2023-02-04T03:29:10;6.40;99.90
26595;DHT22;14238;49.496;8.154;2023-02-04T03:31:37;6.40;99.90
26595;DHT22;14238;49.496;8.154;2023-02-04T03:34:02;6.40;99.90
26595;DHT22;14238;49.496;8.154;2023-02-04T03:36:28;6.40;99.90
26595;DHT22;14238;49.496;8.154;2023-02-04T03:38:54;6.40;99.90
26595;DHT22;14238;49.496;8.154;2023-02-04T03:41:19;6.40;99.90
26595;DHT22;14238;49.496;8.154;2023-02-04T03:43:45;6.50;99.90
26595;DHT22;14238;49.496;8.154;2023-02-04T03:46:10;6.40;99.90
26595;DHT22;14238;49.496;8.154;2023-02-04T03:48:36;6.30;99.90
26595;DHT22;14238;49.496;8.154;2023-02-04T03:51:01;6.30;99.90
26595;DHT22;14238;49.496;8.154;2023-02-04T03:53:27;6.40;99.90
26595;DHT22;14238;49.496;8.154;2023-02-04T03:55:53;6.30;99.90
26595;DHT22;14238;49.496;8.154;2023-02-04T03:58:18;6.30;99.90
26595;DHT22;14238;49.496;8.154;2023-02-04T04:00:44;6.30;99.90
26595;DHT22;14238;49.496;8.154;2023-02-04T04:03:09;6.30;99.90
26595;DHT22;14238;49.496;8.154;2023-02-04T04:05:35;6.30;99.90
26595;DHT22;14238;49.496;8.154;2023-02-04T04:08:00;6.30;99.90
26595;DHT22;14238;49.496;8.154;2023-02-04T04:10:26;6.30;99.90
26595;DHT22;14238;49.496;8.154;2023-02-04T04:12:53;6.30;99.90
26595;DHT22;14238;49.496;8.154;2023-02-04T04:15:19;6.30;99.90
26595;DHT22;14238;49.496;8.154;2023-02-04T04:17:45;6.20;99.90
26595;DHT22;14238;49.496;8.154;2023-02-04T04:20:11;6.30;99.90
26595;DHT22;14238;49.496;8.154;2023-02-04T04:22:37;6.30;99.90
26595;DHT22;14238;49.496;8.154;2023-02-04T04:25:03;6.20;99.90
26595;DHT22;14238;49.496;8.154;2023-02-04T04:27:29;6.30;99.90
26595;DHT22;14238;49.496;8.154;2023-02-04T04:29:55;6.30;99.90
26595;DHT22;14238;49.496;8.154;2023-02-04T04:32:22;6.30;99.90
26595;DHT22;14238;49.496;8.154;2023-02-04T04:34:47;6.30;99.90
26595;DHT22;14238;49.496;8.154;2023-02-04T04:37:13;6.20;99.90
26595;DHT22;14238;49.496;8.154;2023-02-04T04:39:39;6.20;99.90
26595;DHT22;14238;49.496;8.154;2023-02-04T04:42:04;6.20;99.90
26595;DHT22;14238;49.496;8.154;2023-02-04T04:44:30;6.20;99.90
26595;DHT22;14238;49.496;8.154;2023-02-04T04:46:56;6.10;99.90
26595;DHT22;14238;49.496;8.154;2023-02-04T04:49:22;6.20;99.90
26595;DHT22;14238;49.496;8.154;2023-02-04T04:51:47;6.20;99.90
26595;DHT22;14238;49.496;8.154;2023-02-04T04:54:13;6.20;99.90
26595;DHT22;14238;49.496;8.154;2023-02-04T04:56:38;6.20;99.90
26595;DHT22;14238;49.496;8.154;2023-02-04T04:59:04;6.20;99.90
26595;DHT22;14238;49.496;8.154;2023-02-04T05:01:29;6.10;99.90
26595;DHT22;14238;49.496;8.154;2023-02-04T05:03:55;6.10;99.90
26595;DHT22;14238;49.496;8.154;2023-02-04T05:06:20;6.10;99.90
26595;DHT22;14238;49.496;8.154;2023-02-04T05:08:50;6.00;99.90
26595;DHT22;14238;49.496;8.154;2023-02-04T05:11:16;6.00;99.90
26595;DHT22;14238;49.496;8.154;2023-02-04T05:13:41;6.00;99.90
26595;DHT22;14238;49.496;8.154;2023-02-04T05:16:07;6.00;99.90
26595;DHT22;14238;49.496;8.154;2023-02-04T05:18:32;6.00;99.90
26595;DHT22;14238;49.496;8.154;2023-02-04T05:20:58;6.00;99.90
26595;DHT22;14238;49.496;8.154;2023-02-04T05:23:23;5.90;99.90
26595;DHT22;14238;49.496;8.154;2023-02-04T05:25:49;5.90;99.90
26595;DHT22;14238;49.496;8.154;2023-02-04T05:28:14;5.90;99.90
26595;DHT22;14238;49.496;8.154;2023-02-04T05:30:40;5.90;99.90
26595;DHT22;14238;49.496;8.154;2023-02-04T05:33:05;5.90;99.90
26595;DHT22;14238;49.496;8.154;2023-02-04T05:35:31;5.90;99.90
26595;DHT22;14238;49.496;8.154;2023-02-04T05:37:56;5.90;99.90
26595;DHT22;14238;49.496;8.154;2023-02-04T05:40:22;6.00;99.90
26595;DHT22;14238;49.496;8.154;2023-02-04T05:42:47;6.00;99.90
26595;DHT22;14238;49.496;8.154;2023-02-04T05:45:14;6.00;99.90
26595;DHT22;14238;49.496;8.154;2023-02-04T05:47:41;6.00;99.90
26595;DHT22;14238;49.496;8.154;2023-02-04T05:50:07;6.00;99.90
26595;DHT22;14238;49.496;8.154;2023-02-04T05:52:32;5.90;99.90
26595;DHT22;14238;49.496;8.154;2023-02-04T05:54:58;5.90;99.90
26595;DHT22;14238;49.496;8.154;2023-02-04T05:57:23;5.90;99.90
26595;DHT22;14238;49.496;8.154;2023-02-04T05:59:49;5.90;99.90
26595;DHT22;14238;49.496;8.154;2023-02-04T06:02:14;5.80;99.90
26595;DHT22;14238;49.496;8.154;2023-02-04T06:04:40;5.80;99.90
26595;DHT22;14238;49.496;8.154;2023-02-04T06:07:05;5.80;99.90
26595;DHT22;14238;49.496;8.154;2023-02-04T06:09:31;5.80;99.90
26595;DHT22;14238;49.496;8.154;2023-02-04T06:11:56;5.90;99.90
26595;DHT22;14238;49.496;8.154;2023-02-04T06:14:22;5.80;99.90
26595;DHT22;14238;49.496;8.154;2023-02-04T06:16:47;5.90;99.90
26595;DHT22;14238;49.496;8.154;2023-02-04T06:19:13;5.90;99.90
26595;DHT22;14238;49.496;8.154;2023-02-04T06:21:39;5.90;99.90
26595;DHT22;14238;49.496;8.154;2023-02-04T06:24:04;5.90;99.90
26595;DHT22;14238;49.496;8.154;2023-02-04T06:26:30;5.90;99.90
26595;DHT22;14238;49.496;8.154;2023-02-04T06:28:55;5.90;99.90
26595;DHT22;14238;49.496;8.154;2023-02-04T06:31:21;5.80;99.90
26595;DHT22;14238;49.496;8.154;2023-02-04T06:33:46;5.80;99.90
26595;DHT22;14238;49.496;8.154;2023-02-04T06:36:12;5.90;99.90
26595;DHT22;14238;49.496;8.154;2023-02-04T06:38:37;5.90;99.90
26595;DHT22;14238;49.496;8.154;2023-02-04T06:41:03;5.90;99.90
26595;DHT22;14238;49.496;8.154;2023-02-04T06:43:29;5.80;99.90
26595;DHT22;14238;49.496;8.154;2023-02-04T06:45:54;5.80;99.90
26595;DHT22;14238;49.496;8.154;2023-02-04T06:48:20;5.70;99.90
26595;DHT22;14238;49.496;8.154;2023-02-04T06:50:45;5.70;99.90
26595;DHT22;14238;49.496;8.154;2023-02-04T06:53:11;5.70;99.90
26595;DHT22;14238;49.496;8.154;2023-02-04T06:55:37;5.70;99.90
26595;DHT22;14238;49.496;8.154;2023-02-04T06:58:02;5.70;99.90
26595;DHT22;14238;49.496;8.154;2023-02-04T07:00:28;5.60;99.90
26595;DHT22;14238;49.496;8.154;2023-02-04T07:02:55;5.70;99.90
26595;DHT22;14238;49.496;8.154;2023-02-04T07:05:22;5.70;99.90
26595;DHT22;14238;49.496;8.154;2023-02-04T07:07:47;5.60;99.90
26595;DHT22;14238;49.496;8.154;2023-02-04T07:10:13;5.60;99.90
26595;DHT22;14238;49.496;8.154;2023-02-04T07:12:38;5.60;99.90
26595;DHT22;14238;49.496;8.154;2023-02-04T07:15:04;5.60;99.90
26595;DHT22;14238;49.496;8.154;2023-02-04T07:17:30;5.60;99.90
26595;DHT22;14238;49.496;8.154;2023-02-04T07:19:55;5.60;99.90
26595;DHT22;14238;49.496;8.154;2023-02-04T07:22:21;5.60;99.90
26595;DHT22;14238;49.496;8.154;2023-02-04T07:24:46;5.60;99.90
26595;DHT22;14238;49.496;8.154;2023-02-04T07:27:11;5.70;99.90
26595;DHT22;14238;49.496;8.154;2023-02-04T07:29:37;5.60;99.90
26595;DHT22;14238;49.496;8.154;2023-02-04T07:32:02;5.70;99.90
26595;DHT22;14238;49.496;8.154;2023-02-04T07:34:28;5.60;99.90
26595;DHT22;14238;49.496;8.154;2023-02-04T07:36:54;5.60;99.90
26595;DHT22;14238;49.496;8.154;2023-02-04T07:39:19;5.50;99.90
26595;DHT22;14238;49.496;8.154;2023-02-04T07:41:44;5.50;99.90
26595;DHT22;14238;49.496;8.154;2023-02-04T07:44:10;5.60;99.90
26595;DHT22;14238;49.496;8.154;2023-02-04T07:46:35;5.60;99.90
26595;DHT22;14238;49.496;8.154;2023-02-04T07:49:01;5.60;99.90
26595;DHT22;14238;49.496;8.154;2023-02-04T07:51:27;5.70;99.90
26595;DHT22;14238;49.496;8.154;2023-02-04T07:53:53;5.80;99.90
26595;DHT22;14238;49.496;8.154;2023-02-04T07:56:19;5.90;99.90
26595;DHT22;14238;49.496;8.154;2023-02-04T07:58:44;5.90;99.90
26595;DHT22;14238;49.496;8.154;2023-02-04T08:01:10;6.00;99.90
26595;DHT22;14238;49.496;8.154;2023-02-04T08:03:35;6.10;99.90
26595;DHT22;14238;49.496;8.154;2023-02-04T08:06:01;6.10;99.90
26595;DHT22;14238;49.496;8.154;2023-02-04T08:08:26;6.10;99.90
26595;DHT22;14238;49.496;8.154;2023-02-04T08:10:52;6.10;99.90
26595;DHT22;14238;49.496;8.154;2023-02-04T08:13:17;6.10;99.90
26595;DHT22;14238;49.496;8.154;2023-02-04T08:15:43;6.10;99.90
26595;DHT22;14238;49.496;8.154;2023-02-04T08:18:08;6.10;99.90
26595;DHT22;14238;49.496;8.154;2023-02-04T08:20:34;6.20;99.90
26595;DHT22;14238;49.496;8.154;2023-02-04T08:22:59;6.20;99.90
26595;DHT22;14238;49.496;8.154;2023-02-04T08:25:25;6.20;99.90
26595;DHT22;14238;49.496;8.154;2023-02-04T08:27:50;6.20;99.90
26595;DHT22;14238;49.496;8.154;2023-02-04T08:30:16;6.30;99.90
26595;DHT22;14238;49.496;8.154;2023-02-04T08:32:42;6.30;99.90
26595;DHT22;14238;49.496;8.154;2023-02-04T08:35:07;6.40;99.90
26595;DHT22;14238;49.496;8.154;2023-02-04T08:37:33;6.40;99.90
26595;DHT22;14238;49.496;8.154;2023-02-04T08:39:59;6.40;99.90
26595;DHT22;14238;49.496;8.154;2023-02-04T08:42:24;6.40;99.90
26595;DHT22;14238;49.496;8.154;2023-02-04T08:44:50;6.50;99.90
26595;DHT22;14238;49.496;8.154;2023-02-04T08:47:16;6.60;99.90
26595;DHT22;14238;49.496;8.154;2023-02-04T08:49:41;6.60;99.90
26595;DHT22;14238;49.496;8.154;2023-02-04T08:52:07;6.70;99.90
26595;DHT22;14238;49.496;8.154;2023-02-04T08:54:33;6.70;99.90
26595;DHT22;14238;49.496;8.154;2023-02-04T08:57:00;6.90;99.90
26595;DHT22;14238;49.496;8.154;2023-02-04T08:59:26;6.90;99.90
26595;DHT22;14238;49.496;8.154;2023-02-04T09:01:52;6.80;99.90
26595;DHT22;14238;49.496;8.154;2023-02-04T09:04:18;6.90;99.90
26595;DHT22;14238;49.496;8.154;2023-02-04T09:06:44;6.90;99.90
26595;DHT22;14238;49.496;8.154;2023-02-04T09:09:09;6.90;99.90
26595;DHT22;14238;49.496;8.154;2023-02-04T09:11:35;7.00;99.90
26595;DHT22;14238;49.496;8.154;2023-02-04T09:14:01;7.00;99.90
26595;DHT22;14238;49.496;8.154;2023-02-04T09:16:26;7.00;99.90
26595;DHT22;14238;49.496;8.154;2023-02-04T09:18:52;7.00;99.90
26595;DHT22;14238;49.496;8.154;2023-02-04T09:21:17;7.00;99.90
26595;DHT22;14238;49.496;8.154;2023-02-04T09:23:43;7.10;99.90
26595;DHT22;14238;49.496;8.154;2023-02-04T09:26:09;7.20;99.90
26595;DHT22;14238;49.496;8.154;2023-02-04T09:28:35;7.20;99.90
26595;DHT22;14238;49.496;8.154;2023-02-04T09:31:01;7.30;99.90
26595;DHT22;14238;49.496;8.154;2023-02-04T09:33:27;7.30;99.90
26595;DHT22;14238;49.496;8.154;2023-02-04T09:35:52;7.50;99.90
26595;DHT22;14238;49.496;8.154;2023-02-04T09:38:18;7.70;99.90
26595;DHT22;14238;49.496;8.154;2023-02-04T09:40:48;7.80;99.90
26595;DHT22;14238;49.496;8.154;2023-02-04T09:43:21;7.90;99.90
26595;DHT22;14238;49.496;8.154;2023-02-04T09:45:49;8.00;99.90
26595;DHT22;14238;49.496;8.154;2023-02-04T09:48:15;8.10;99.90
26595;DHT22;14238;49.496;8.154;2023-02-04T09:50:41;8.10;99.90
26595;DHT22;14238;49.496;8.154;2023-02-04T09:53:12;8.00;99.90
26595;DHT22;14238;49.496;8.154;2023-02-04T09:55:40;8.20;99.90
26595;DHT22;14238;49.496;8.154;2023-02-04T09:58:15;8.30;99.90
26595;DHT22;14238;49.496;8.154;2023-02-04T10:00:42;8.40;99.90
26595;DHT22;14238;49.496;8.154;2023-02-04T10:03:15;8.20;99.90
26595;DHT22;14238;49.496;8.154;2023-02-04T10:05:41;8.10;99.90
26595;DHT22;14238;49.496;8.154;2023-02-04T10:08:13;8.10;99.90
26595;DHT22;14238;49.496;8.154;2023-02-04T10:10:40;7.90;99.90
26595;DHT22;14238;49.496;8.154;2023-02-04T10:13:07;7.80;99.90
26595;DHT22;14238;49.496;8.154;2023-02-04T10:15:33;7.70;99.90
26595;DHT22;14238;49.496;8.154;2023-02-04T10:18:02;7.70;99.90
26595;DHT22;14238;49.496;8.154;2023-02-04T10:20:29;7.70;99.90
26595;DHT22;14238;49.496;8.154;2023-02-04T10:22:55;7.60;99.90
26595;DHT22;14238;49.496;8.154;2023-02-04T10:25:23;7.60;99.90
26595;DHT22;14238;49.496;8.154;2023-02-04T10:27:53;7.60;99.90
26595;DHT22;14238;49.496;8.154;2023-02-04T10:30:40;7.60;99.90
26595;DHT22;14238;49.496;8.154;2023-02-04T10:33:15;7.50;99.90
26595;DHT22;14238;49.496;8.154;2023-02-04T10:35:47;7.40;99.90
26595;DHT22;14238;49.496;8.154;2023-02-04T10:38:13;7.40;99.90
26595;DHT22;14238;49.496;8.154;2023-02-04T10:40:39;7.40;99.90
26595;DHT22;14238;49.496;8.154;2023-02-04T10:43:24;7.40;99.90
26595;DHT22;14238;49.496;8.154;2023-02-04T10:46:01;7.30;99.90
26595;DHT22;14238;49.496;8.154;2023-02-04T10:48:28;7.30;99.90
26595;DHT22;14238;49.496;8.154;2023-02-04T10:50:55;7.40;99.90
26595;DHT22;14238;49.496;8.154;2023-02-04T10:53:23;7.50;99.90
26595;DHT22;14238;49.496;8.154;2023-02-04T10:56:15;7.50;99.90
26595;DHT22;14238;49.496;8.154;2023-02-04T10:58:41;7.70;99.90
26595;DHT22;14238;49.496;8.154;2023-02-04T11:01:11;7.80;99.90
26595;DHT22;14238;49.496;8.154;2023-02-04T11:03:38;7.90;99.90
26595;DHT22;14238;49.496;8.154;2023-02-04T11:06:10;8.00;99.90
26595;DHT22;14238;49.496;8.154;2023-02-04T11:08:37;8.20;99.90
26595;DHT22;14238;49.496;8.154;2023-02-04T11:11:26;8.40;99.90
26595;DHT22;14238;49.496;8.154;2023-02-04T11:16:30;8.40;99.90
26595;DHT22;14238;49.496;8.154;2023-02-04T11:19:10;8.30;99.90
26595;DHT22;14238;49.496;8.154;2023-02-04T11:26:37;8.50;99.90
26595;DHT22;14238;49.496;8.154;2023-02-04T11:34:24;9.20;99.90
26595;DHT22;14238;49.496;8.154;2023-02-04T11:39:37;11.80;99.90
26595;DHT22;14238;49.496;8.154;2023-02-04T11:42:18;11.60;99.90
26595;DHT22;14238;49.496;8.154;2023-02-04T11:44:57;11.20;99.90
26595;DHT22;14238;49.496;8.154;2023-02-04T11:47:24;10.50;99.90
26595;DHT22;14238;49.496;8.154;2023-02-04T11:50:12;10.00;99.90
26595;DHT22;14238;49.496;8.154;2023-02-04T11:52:39;9.60;99.90
26595;DHT22;14238;49.496;8.154;2023-02-04T11:55:04;10.40;99.90
26595;DHT22;14238;49.496;8.154;2023-02-04T11:57:40;10.30;99.90
26595;DHT22;14238;49.496;8.154;2023-02-04T12:00:18;10.10;99.90
26595;DHT22;14238;49.496;8.154;2023-02-04T12:02:49;9.70;99.90
26595;DHT22;14238;49.496;8.154;2023-02-04T12:05:17;9.20;99.90
26595;DHT22;14238;49.496;8.154;2023-02-04T12:07:44;8.90;99.90
26595;DHT22;14238;49.496;8.154;2023-02-04T12:10:33;8.80;99.90
26595;DHT22;14238;49.496;8.154;2023-02-04T12:12:57;10.40;99.90
26595;DHT22;14238;49.496;8.154;2023-02-04T12:15:30;12.90;99.90
26595;DHT22;14238;49.496;8.154;2023-02-04T12:18:07;14.50;99.90
26595;DHT22;14238;49.496;8.154;2023-02-04T12:20:34;15.30;99.90
26595;DHT22;14238;49.496;8.154;2023-02-04T12:23:00;14.50;99.90
26595;DHT22;14238;49.496;8.154;2023-02-04T12:25:28;14.10;99.90
26595;DHT22;14238;49.496;8.154;2023-02-04T12:27:54;13.80;99.90
26595;DHT22;14238;49.496;8.154;2023-02-04T12:30:23;14.40;99.90
26595;DHT22;14238;49.496;8.154;2023-02-04T12:32:49;15.60;99.90
26595;DHT22;14238;49.496;8.154;2023-02-04T12:35:15;16.40;99.90
26595;DHT22;14238;49.496;8.154;2023-02-04T12:37:41;16.00;99.90
26595;DHT22;14238;49.496;8.154;2023-02-04T12:40:07;15.40;99.90
26595;DHT22;14238;49.496;8.154;2023-02-04T12:42:32;15.10;99.90
26595;DHT22;14238;49.496;8.154;2023-02-04T12:44:58;13.40;99.90
26595;DHT22;14238;49.496;8.154;2023-02-04T12:47:24;12.10;99.90
26595;DHT22;14238;49.496;8.154;2023-02-04T12:49:49;11.50;99.90
26595;DHT22;14238;49.496;8.154;2023-02-04T12:52:15;11.30;99.90
26595;DHT22;14238;49.496;8.154;2023-02-04T12:54:40;11.10;99.90
26595;DHT22;14238;49.496;8.154;2023-02-04T12:57:08;10.70;99.90
26595;DHT22;14238;49.496;8.154;2023-02-04T12:59:33;10.40;99.90
26595;DHT22;14238;49.496;8.154;2023-02-04T13:01:59;10.30;99.90
26595;DHT22;14238;49.496;8.154;2023-02-04T13:04:24;10.30;99.90
26595;DHT22;14238;49.496;8.154;2023-02-04T13:06:49;10.20;99.90
26595;DHT22;14238;49.496;8.154;2023-02-04T13:09:15;10.40;99.90
26595;DHT22;14238;49.496;8.154;2023-02-04T13:11:40;11.00;99.90
26595;DHT22;14238;49.496;8.154;2023-02-04T13:14:06;11.10;99.90
26595;DHT22;14238;49.496;8.154;2023-02-04T13:16:32;11.10;99.90
26595;DHT22;14238;49.496;8.154;2023-02-04T13:18:57;11.20;99.90
26595;DHT22;14238;49.496;8.154;2023-02-04T13:21:23;11.80;99.90
26595;DHT22;14238;49.496;8.154;2023-02-04T13:23:48;12.70;99.90
26595;DHT22;14238;49.496;8.154;2023-02-04T13:26:14;13.20;99.90
26595;DHT22;14238;49.496;8.154;2023-02-04T13:28:39;12.20;99.90
26595;DHT22;14238;49.496;8.154;2023-02-04T13:31:05;11.60;99.90
26595;DHT22;14238;49.496;8.154;2023-02-04T13:33:30;10.90;99.90
26595;DHT22;14238;49.496;8.154;2023-02-04T13:35:56;10.30;99.90
26595;DHT22;14238;49.496;8.154;2023-02-04T13:38:21;10.10;99.90
26595;DHT22;14238;49.496;8.154;2023-02-04T13:40:47;9.90;99.90
26595;DHT22;14238;49.496;8.154;2023-02-04T13:43:13;9.90;99.90
26595;DHT22;14238;49.496;8.154;2023-02-04T13:45:38;9.60;99.90
26595;DHT22;14238;49.496;8.154;2023-02-04T13:48:05;9.40;99.90
26595;DHT22;14238;49.496;8.154;2023-02-04T13:50:30;9.20;99.90
26595;DHT22;14238;49.496;8.154;2023-02-04T13:52:56;9.20;99.90
26595;DHT22;14238;49.496;8.154;2023-02-04T13:55:21;9.10;99.90
26595;DHT22;14238;49.496;8.154;2023-02-04T13:57:47;9.10;99.90
26595;DHT22;14238;49.496;8.154;2023-02-04T14:00:13;9.10;99.90
26595;DHT22;14238;49.496;8.154;2023-02-04T14:02:38;9.30;99.90
26595;DHT22;14238;49.496;8.154;2023-02-04T14:05:05;9.40;99.90
26595;DHT22;14238;49.496;8.154;2023-02-04T14:07:30;9.50;99.90
26595;DHT22;14238;49.496;8.154;2023-02-04T14:09:58;9.70;99.90
26595;DHT22;14238;49.496;8.154;2023-02-04T14:12:23;9.70;99.90
26595;DHT22;14238;49.496;8.154;2023-02-04T14:14:49;10.10;99.90
26595;DHT22;14238;49.496;8.154;2023-02-04T14:17:14;10.10;99.90
26595;DHT22;14238;49.496;8.154;2023-02-04T14:19:40;10.10;99.90
26595;DHT22;14238;49.496;8.154;2023-02-04T14:22:06;10.20;99.90
26595;DHT22;14238;49.496;8.154;2023-02-04T14:24:32;10.00;99.90
26595;DHT22;14238;49.496;8.154;2023-02-04T14:26:57;9.80;99.90
26595;DHT22;14238;49.496;8.154;2023-02-04T14:29:23;9.50;99.90
26595;DHT22;14238;49.496;8.154;2023-02-04T14:31:48;9.60;99.90
26595;DHT22;14238;49.496;8.154;2023-02-04T14:34:14;9.50;99.90
26595;DHT22;14238;49.496;8.154;2023-02-04T14:36:39;9.50;99.90
26595;DHT22;14238;49.496;8.154;2023-02-04T14:39:05;9.40;99.90
26595;DHT22;14238;49.496;8.154;2023-02-04T14:41:31;9.30;99.90
26595;DHT22;14238;49.496;8.154;2023-02-04T14:43:56;9.30;99.90
26595;DHT22;14238;49.496;8.154;2023-02-04T14:46:22;8.90;99.90
26595;DHT22;14238;49.496;8.154;2023-02-04T14:48:48;8.80;99.90
26595;DHT22;14238;49.496;8.154;2023-02-04T14:51:16;8.80;99.90
26595;DHT22;14238;49.496;8.154;2023-02-04T14:53:42;8.80;99.90
26595;DHT22;14238;49.496;8.154;2023-02-04T14:56:07;8.80;99.90
26595;DHT22;14238;49.496;8.154;2023-02-04T14:58:33;8.80;99.90
26595;DHT22;14238;49.496;8.154;2023-02-04T15:00:58;8.80;99.90
26595;DHT22;14238;49.496;8.154;2023-02-04T15:03:24;8.70;99.90
26595;DHT22;14238;49.496;8.154;2023-02-04T15:05:49;8.70;99.90
26595;DHT22;14238;49.496;8.154;2023-02-04T15:08:15;8.60;99.90
26595;DHT22;14238;49.496;8.154;2023-02-04T15:10:40;8.70;99.90
26595;DHT22;14238;49.496;8.154;2023-02-04T15:13:06;8.70;99.90
26595;DHT22;14238;49.496;8.154;2023-02-04T15:15:31;8.70;99.90
26595;DHT22;14238;49.496;8.154;2023-02-04T15:17:57;8.50;99.90
26595;DHT22;14238;49.496;8.154;2023-02-04T15:20:22;8.20;99.90
26595;DHT22;14238;49.496;8.154;2023-02-04T15:22:49;8.10;99.90
26595;DHT22;14238;49.496;8.154;2023-02-04T15:25:17;7.90;99.90
26595;DHT22;14238;49.496;8.154;2023-02-04T15:27:42;7.80;99.90
26595;DHT22;14238;49.496;8.154;2023-02-04T15:30:08;7.60;99.90
26595;DHT22;14238;49.496;8.154;2023-02-04T15:32:34;7.40;99.90
26595;DHT22;14238;49.496;8.154;2023-02-04T15:35:00;7.30;99.90
26595;DHT22;14238;49.496;8.154;2023-02-04T15:37:26;7.20;99.90
26595;DHT22;14238;49.496;8.154;2023-02-04T15:39:51;7.00;99.90
26595;DHT22;14238;49.496;8.154;2023-02-04T15:42:17;7.00;99.90
26595;DHT22;14238;49.496;8.154;2023-02-04T15:44:42;6.90;99.90
26595;DHT22;14238;49.496;8.154;2023-02-04T15:47:08;6.80;99.90
26595;DHT22;14238;49.496;8.154;2023-02-04T15:49:33;6.70;99.90
26595;DHT22;14238;49.496;8.154;2023-02-04T15:51:59;6.70;99.90
26595;DHT22;14238;49.496;8.154;2023-02-04T15:54:26;6.60;99.90
26595;DHT22;14238;49.496;8.154;2023-02-04T15:56:51;6.50;99.90